sensor_id;sensor_type;location;lat;lon;timestamp;P1;durP1;ratioP1;P2;durP2;ratioP2
70953;SDS011;58618;47.490;8.736;2023-11-19T00:01:37;2.60;;;1.87;;
70953;SDS011;58618;47.490;8.736;2023-11-19T00:04:04;2.65;;;1.85;;
70953;SDS011;58618;47.490;8.736;2023-11-19T00:06:32;3.10;;;1.90;;
70953;SDS011;58618;47.490;8.736;2023-11-19T00:08:59;2.92;;;1.80;;
70953;SDS011;58618;47.490;8.736;2023-11-19T00:11:27;2.17;;;1.70;;
70953;SDS011;58618;47.490;8.736;2023-11-19T00:13:54;3.33;;;1.97;;
70953;SDS011;58618;47.490;8.736;2023-11-19T00:16:22;3.67;;;1.90;;
70953;SDS011;58618;47.490;8.736;2023-11-19T00:18:50;3.15;;;1.98;;
70953;SDS011;58618;47.490;8.736;2023-11-19T00:21:17;3.88;;;2.00;;
70953;SDS011;58618;47.490;8.736;2023-11-19T00:23:44;2.90;;;2.00;;
70953;SDS011;58618;47.490;8.736;2023-11-19T00:26:11;3.50;;;2.20;;
70953;SDS011;58618;47.490;8.736;2023-11-19T00:28:39;3.17;;;2.13;;
70953;SDS011;58618;47.490;8.736;2023-11-19T00:31:07;3.53;;;2.10;;
70953;SDS011;58618;47.490;8.736;2023-11-19T00:33:35;2.85;;;1.90;;
70953;SDS011;58618;47.490;8.736;2023-11-19T00:36:03;2.97;;;1.90;;
70953;SDS011;58618;47.490;8.736;2023-11-19T00:38:31;3.77;;;1.80;;
70953;SDS011;58618;47.490;8.736;2023-11-19T00:40:58;4.35;;;2.22;;
70953;SDS011;58618;47.490;8.736;2023-11-19T00:43:25;4.18;;;1.90;;
70953;SDS011;58618;47.490;8.736;2023-11-19T00:45:53;2.53;;;1.70;;
70953;SDS011;58618;47.490;8.736;2023-11-19T00:48:20;3.38;;;2.10;;
70953;SDS011;58618;47.490;8.736;2023-11-19T00:50:48;3.57;;;2.23;;
70953;SDS011;58618;47.490;8.736;2023-11-19T00:53:16;2.40;;;1.80;;
70953;SDS011;58618;47.490;8.736;2023-11-19T00:55:43;3.65;;;2.20;;
70953;SDS011;58618;47.490;8.736;2023-11-19T00:58:10;2.75;;;1.80;;
70953;SDS011;58618;47.490;8.736;2023-11-19T01:00:38;2.55;;;1.60;;
70953;SDS011;58618;47.490;8.736;2023-11-19T01:03:05;4.33;;;1.90;;
70953;SDS011;58618;47.490;8.736;2023-11-19T01:05:33;2.80;;;1.90;;
70953;SDS011;58618;47.490;8.736;2023-11-19T01:08:01;2.10;;;1.80;;
70953;SDS011;58618;47.490;8.736;2023-11-19T01:10:30;4.22;;;1.90;;
70953;SDS011;58618;47.490;8.736;2023-11-19T01:12:57;2.45;;;1.90;;
70953;SDS011;58618;47.490;8.736;2023-11-19T01:15:25;2.07;;;1.60;;
70953;SDS011;58618;47.490;8.736;2023-11-19T01:17:52;2.42;;;1.80;;
70953;SDS011;58618;47.490;8.736;2023-11-19T01:20:19;3.20;;;1.70;;
70953;SDS011;58618;47.490;8.736;2023-11-19T01:22:47;2.65;;;1.58;;
70953;SDS011;58618;47.490;8.736;2023-11-19T01:25:16;4.05;;;1.70;;
70953;SDS011;58618;47.490;8.736;2023-11-19T01:27:43;2.60;;;1.80;;
70953;SDS011;58618;47.490;8.736;2023-11-19T01:30:11;3.10;;;1.40;;
70953;SDS011;58618;47.490;8.736;2023-11-19T01:32:39;4.18;;;1.75;;
70953;SDS011;58618;47.490;8.736;2023-11-19T01:35:07;2.30;;;1.50;;
70953;SDS011;58618;47.490;8.736;2023-11-19T01:37:34;2.50;;;1.77;;
70953;SDS011;58618;47.490;8.736;2023-11-19T01:40:02;2.57;;;1.40;;
70953;SDS011;58618;47.490;8.736;2023-11-19T01:42:37;1.92;;;1.40;;
70953;SDS011;58618;47.490;8.736;2023-11-19T01:45:04;1.80;;;1.30;;
70953;SDS011;58618;47.490;8.736;2023-11-19T01:47:35;3.47;;;1.60;;
70953;SDS011;58618;47.490;8.736;2023-11-19T01:50:03;2.60;;;1.50;;
70953;SDS011;58618;47.490;8.736;2023-11-19T01:52:34;3.47;;;1.63;;
70953;SDS011;58618;47.490;8.736;2023-11-19T01:55:03;3.35;;;1.70;;
70953;SDS011;58618;47.490;8.736;2023-11-19T01:57:31;2.08;;;1.58;;
70953;SDS011;58618;47.490;8.736;2023-11-19T02:00:00;3.50;;;1.80;;
70953;SDS011;58618;47.490;8.736;2023-11-19T02:02:28;2.33;;;1.67;;
70953;SDS011;58618;47.490;8.736;2023-11-19T02:04:55;2.20;;;1.60;;
70953;SDS011;58618;47.490;8.736;2023-11-19T02:07:23;2.40;;;1.60;;
70953;SDS011;58618;47.490;8.736;2023-11-19T02:09:51;2.83;;;1.63;;
70953;SDS011;58618;47.490;8.736;2023-11-19T02:12:18;2.40;;;1.40;;
70953;SDS011;58618;47.490;8.736;2023-11-19T02:14:46;2.05;;;1.50;;
70953;SDS011;58618;47.490;8.736;2023-11-19T02:17:26;2.30;;;1.00;;
70953;SDS011;58618;47.490;8.736;2023-11-19T02:19:54;2.88;;;1.60;;
70953;SDS011;58618;47.490;8.736;2023-11-19T02:22:21;2.33;;;1.50;;
70953;SDS011;58618;47.490;8.736;2023-11-19T02:24:50;2.35;;;1.60;;
70953;SDS011;58618;47.490;8.736;2023-11-19T02:27:20;1.85;;;1.45;;
70953;SDS011;58618;47.490;8.736;2023-11-19T02:29:59;2.43;;;1.37;;
70953;SDS011;58618;47.490;8.736;2023-11-19T02:32:27;2.97;;;1.50;;
70953;SDS011;58618;47.490;8.736;2023-11-19T02:34:56;2.08;;;1.63;;
70953;SDS011;58618;47.490;8.736;2023-11-19T02:37:23;2.25;;;1.60;;
70953;SDS011;58618;47.490;8.736;2023-11-19T02:39:51;2.03;;;1.40;;
70953;SDS011;58618;47.490;8.736;2023-11-19T02:42:18;1.57;;;1.30;;
70953;SDS011;58618;47.490;8.736;2023-11-19T02:44:46;2.45;;;1.40;;
70953;SDS011;58618;47.490;8.736;2023-11-19T02:47:15;1.80;;;1.30;;
70953;SDS011;58618;47.490;8.736;2023-11-19T02:49:43;2.08;;;1.20;;
70953;SDS011;58618;47.490;8.736;2023-11-19T02:52:10;1.95;;;1.20;;
70953;SDS011;58618;47.490;8.736;2023-11-19T02:54:37;2.10;;;1.30;;
70953;SDS011;58618;47.490;8.736;2023-11-19T02:57:05;1.88;;;1.30;;
70953;SDS011;58618;47.490;8.736;2023-11-19T02:59:35;3.15;;;1.70;;
70953;SDS011;58618;47.490;8.736;2023-11-19T03:02:07;1.90;;;1.50;;
70953;SDS011;58618;47.490;8.736;2023-11-19T03:04:38;2.88;;;1.30;;
70953;SDS011;58618;47.490;8.736;2023-11-19T03:07:06;2.93;;;1.30;;
70953;SDS011;58618;47.490;8.736;2023-11-19T03:09:34;2.47;;;1.60;;
70953;SDS011;58618;47.490;8.736;2023-11-19T03:12:01;1.70;;;1.40;;
70953;SDS011;58618;47.490;8.736;2023-11-19T03:14:32;2.90;;;1.55;;
70953;SDS011;58618;47.490;8.736;2023-11-19T03:17:00;3.05;;;1.73;;
70953;SDS011;58618;47.490;8.736;2023-11-19T03:19:28;2.47;;;1.50;;
70953;SDS011;58618;47.490;8.736;2023-11-19T03:22:05;6.82;;;1.85;;
70953;SDS011;58618;47.490;8.736;2023-11-19T03:24:32;3.38;;;1.88;;
70953;SDS011;58618;47.490;8.736;2023-11-19T03:27:00;6.18;;;1.75;;
70953;SDS011;58618;47.490;8.736;2023-11-19T03:29:27;4.38;;;1.90;;
70953;SDS011;58618;47.490;8.736;2023-11-19T03:31:54;2.87;;;1.70;;
70953;SDS011;58618;47.490;8.736;2023-11-19T03:34:21;2.15;;;1.67;;
70953;SDS011;58618;47.490;8.736;2023-11-19T03:36:49;3.15;;;2.00;;
70953;SDS011;58618;47.490;8.736;2023-11-19T03:39:17;3.95;;;2.00;;
70953;SDS011;58618;47.490;8.736;2023-11-19T03:41:45;2.80;;;2.10;;
70953;SDS011;58618;47.490;8.736;2023-11-19T03:44:12;3.33;;;2.03;;
70953;SDS011;58618;47.490;8.736;2023-11-19T03:46:40;3.55;;;2.00;;
70953;SDS011;58618;47.490;8.736;2023-11-19T03:49:07;3.75;;;2.40;;
70953;SDS011;58618;47.490;8.736;2023-11-19T03:51:34;3.47;;;2.25;;
70953;SDS011;58618;47.490;8.736;2023-11-19T03:54:01;3.25;;;2.38;;
70953;SDS011;58618;47.490;8.736;2023-11-19T03:56:30;2.70;;;2.07;;
70953;SDS011;58618;47.490;8.736;2023-11-19T03:58:58;2.75;;;1.83;;
70953;SDS011;58618;47.490;8.736;2023-11-19T04:01:25;3.72;;;2.70;;
70953;SDS011;58618;47.490;8.736;2023-11-19T04:03:52;3.08;;;2.20;;
70953;SDS011;58618;47.490;8.736;2023-11-19T04:06:21;3.38;;;2.42;;
70953;SDS011;58618;47.490;8.736;2023-11-19T04:08:48;4.00;;;2.10;;
70953;SDS011;58618;47.490;8.736;2023-11-19T04:11:16;3.35;;;2.00;;
70953;SDS011;58618;47.490;8.736;2023-11-19T04:13:44;4.18;;;2.40;;
70953;SDS011;58618;47.490;8.736;2023-11-19T04:16:12;3.80;;;2.50;;
70953;SDS011;58618;47.490;8.736;2023-11-19T04:18:40;5.57;;;2.33;;
70953;SDS011;58618;47.490;8.736;2023-11-19T04:21:07;3.97;;;2.30;;
70953;SDS011;58618;47.490;8.736;2023-11-19T04:23:35;3.45;;;2.33;;
70953;SDS011;58618;47.490;8.736;2023-11-19T04:26:02;6.22;;;2.42;;
70953;SDS011;58618;47.490;8.736;2023-11-19T04:28:29;5.32;;;2.65;;
70953;SDS011;58618;47.490;8.736;2023-11-19T04:30:58;4.30;;;2.22;;
70953;SDS011;58618;47.490;8.736;2023-11-19T04:33:25;4.77;;;2.10;;
70953;SDS011;58618;47.490;8.736;2023-11-19T04:35:52;2.92;;;1.83;;
70953;SDS011;58618;47.490;8.736;2023-11-19T04:38:20;4.53;;;2.30;;
70953;SDS011;58618;47.490;8.736;2023-11-19T04:40:47;5.50;;;2.10;;
70953;SDS011;58618;47.490;8.736;2023-11-19T04:43:14;2.83;;;2.30;;
70953;SDS011;58618;47.490;8.736;2023-11-19T04:45:41;3.90;;;2.07;;
70953;SDS011;58618;47.490;8.736;2023-11-19T04:48:10;3.58;;;2.00;;
70953;SDS011;58618;47.490;8.736;2023-11-19T04:50:38;3.78;;;2.40;;
70953;SDS011;58618;47.490;8.736;2023-11-19T04:53:05;5.82;;;2.25;;
70953;SDS011;58618;47.490;8.736;2023-11-19T04:55:32;4.45;;;2.63;;
70953;SDS011;58618;47.490;8.736;2023-11-19T04:57:59;2.70;;;2.20;;
70953;SDS011;58618;47.490;8.736;2023-11-19T05:00:27;3.33;;;2.28;;
70953;SDS011;58618;47.490;8.736;2023-11-19T05:02:54;5.88;;;2.47;;
70953;SDS011;58618;47.490;8.736;2023-11-19T05:05:22;3.85;;;2.17;;
70953;SDS011;58618;47.490;8.736;2023-11-19T05:07:50;3.45;;;2.15;;
70953;SDS011;58618;47.490;8.736;2023-11-19T05:10:17;3.10;;;2.30;;
70953;SDS011;58618;47.490;8.736;2023-11-19T05:12:44;3.05;;;1.85;;
70953;SDS011;58618;47.490;8.736;2023-11-19T05:15:11;2.40;;;2.00;;
70953;SDS011;58618;47.490;8.736;2023-11-19T05:17:39;3.47;;;1.95;;
70953;SDS011;58618;47.490;8.736;2023-11-19T05:20:07;2.83;;;2.10;;
70953;SDS011;58618;47.490;8.736;2023-11-19T05:22:40;3.00;;;1.87;;
70953;SDS011;58618;47.490;8.736;2023-11-19T05:25:08;3.50;;;2.08;;
70953;SDS011;58618;47.490;8.736;2023-11-19T05:27:36;2.80;;;2.10;;
70953;SDS011;58618;47.490;8.736;2023-11-19T05:30:04;3.10;;;2.15;;
70953;SDS011;58618;47.490;8.736;2023-11-19T05:32:32;4.03;;;2.10;;
70953;SDS011;58618;47.490;8.736;2023-11-19T05:35:00;3.27;;;1.97;;
70953;SDS011;58618;47.490;8.736;2023-11-19T05:37:27;2.60;;;2.03;;
70953;SDS011;58618;47.490;8.736;2023-11-19T05:39:55;3.30;;;2.25;;
70953;SDS011;58618;47.490;8.736;2023-11-19T05:42:22;2.33;;;1.85;;
70953;SDS011;58618;47.490;8.736;2023-11-19T05:44:49;2.92;;;2.25;;
70953;SDS011;58618;47.490;8.736;2023-11-19T05:47:17;3.67;;;1.70;;
70953;SDS011;58618;47.490;8.736;2023-11-19T05:49:44;2.40;;;1.85;;
70953;SDS011;58618;47.490;8.736;2023-11-19T05:52:11;3.42;;;2.15;;
70953;SDS011;58618;47.490;8.736;2023-11-19T05:54:39;2.45;;;1.75;;
70953;SDS011;58618;47.490;8.736;2023-11-19T05:57:08;3.33;;;1.80;;
70953;SDS011;58618;47.490;8.736;2023-11-19T05:59:35;2.27;;;1.60;;
70953;SDS011;58618;47.490;8.736;2023-11-19T06:02:03;3.17;;;1.70;;
70953;SDS011;58618;47.490;8.736;2023-11-19T06:04:31;2.50;;;1.70;;
70953;SDS011;58618;47.490;8.736;2023-11-19T06:06:58;2.15;;;1.70;;
70953;SDS011;58618;47.490;8.736;2023-11-19T06:09:25;3.80;;;1.90;;
70953;SDS011;58618;47.490;8.736;2023-11-19T06:11:52;2.93;;;1.90;;
70953;SDS011;58618;47.490;8.736;2023-11-19T06:14:22;2.38;;;1.55;;
70953;SDS011;58618;47.490;8.736;2023-11-19T06:16:50;2.60;;;1.73;;
70953;SDS011;58618;47.490;8.736;2023-11-19T06:19:18;2.20;;;1.60;;
70953;SDS011;58618;47.490;8.736;2023-11-19T06:21:45;2.30;;;1.63;;
70953;SDS011;58618;47.490;8.736;2023-11-19T06:24:13;1.67;;;1.30;;
70953;SDS011;58618;47.490;8.736;2023-11-19T06:26:40;1.83;;;1.52;;
70953;SDS011;58618;47.490;8.736;2023-11-19T06:29:07;3.10;;;1.70;;
70953;SDS011;58618;47.490;8.736;2023-11-19T06:31:36;2.17;;;1.55;;
70953;SDS011;58618;47.490;8.736;2023-11-19T06:34:03;2.92;;;1.63;;
70953;SDS011;58618;47.490;8.736;2023-11-19T06:36:30;2.33;;;1.63;;
70953;SDS011;58618;47.490;8.736;2023-11-19T06:38:58;2.20;;;1.60;;
70953;SDS011;58618;47.490;8.736;2023-11-19T06:41:25;2.22;;;1.50;;
70953;SDS011;58618;47.490;8.736;2023-11-19T06:43:54;1.80;;;1.40;;
70953;SDS011;58618;47.490;8.736;2023-11-19T06:46:22;3.15;;;2.05;;
70953;SDS011;58618;47.490;8.736;2023-11-19T06:48:50;2.23;;;1.40;;
70953;SDS011;58618;47.490;8.736;2023-11-19T06:51:17;2.13;;;1.30;;
70953;SDS011;58618;47.490;8.736;2023-11-19T06:53:45;3.17;;;1.90;;
70953;SDS011;58618;47.490;8.736;2023-11-19T06:56:19;3.42;;;1.58;;
70953;SDS011;58618;47.490;8.736;2023-11-19T06:58:47;3.30;;;1.70;;
70953;SDS011;58618;47.490;8.736;2023-11-19T07:01:14;2.20;;;1.20;;
70953;SDS011;58618;47.490;8.736;2023-11-19T07:03:41;3.65;;;1.73;;
70953;SDS011;58618;47.490;8.736;2023-11-19T07:06:10;2.38;;;1.40;;
70953;SDS011;58618;47.490;8.736;2023-11-19T07:08:38;2.47;;;1.70;;
70953;SDS011;58618;47.490;8.736;2023-11-19T07:11:05;2.75;;;1.50;;
70953;SDS011;58618;47.490;8.736;2023-11-19T07:13:35;2.30;;;1.57;;
70953;SDS011;58618;47.490;8.736;2023-11-19T07:16:03;2.53;;;1.30;;
70953;SDS011;58618;47.490;8.736;2023-11-19T07:18:30;2.08;;;1.35;;
70953;SDS011;58618;47.490;8.736;2023-11-19T07:21:01;3.17;;;1.45;;
70953;SDS011;58618;47.490;8.736;2023-11-19T07:23:30;3.35;;;1.58;;
70953;SDS011;58618;47.490;8.736;2023-11-19T07:25:58;2.23;;;1.13;;
70953;SDS011;58618;47.490;8.736;2023-11-19T07:28:25;2.10;;;1.40;;
70953;SDS011;58618;47.490;8.736;2023-11-19T07:30:54;2.00;;;1.10;;
70953;SDS011;58618;47.490;8.736;2023-11-19T07:33:22;3.58;;;1.42;;
70953;SDS011;58618;47.490;8.736;2023-11-19T07:35:50;2.90;;;1.45;;
70953;SDS011;58618;47.490;8.736;2023-11-19T07:38:17;2.97;;;1.40;;
70953;SDS011;58618;47.490;8.736;2023-11-19T07:40:46;3.85;;;1.10;;
70953;SDS011;58618;47.490;8.736;2023-11-19T07:43:13;2.78;;;1.40;;
70953;SDS011;58618;47.490;8.736;2023-11-19T07:45:41;2.08;;;1.10;;
70953;SDS011;58618;47.490;8.736;2023-11-19T07:48:09;2.78;;;1.20;;
70953;SDS011;58618;47.490;8.736;2023-11-19T07:50:38;2.07;;;1.20;;
70953;SDS011;58618;47.490;8.736;2023-11-19T07:53:06;1.85;;;1.10;;
70953;SDS011;58618;47.490;8.736;2023-11-19T07:55:34;2.00;;;1.30;;
70953;SDS011;58618;47.490;8.736;2023-11-19T07:58:03;1.15;;;1.05;;
70953;SDS011;58618;47.490;8.736;2023-11-19T08:00:30;1.50;;;1.20;;
70953;SDS011;58618;47.490;8.736;2023-11-19T08:02:57;1.40;;;1.03;;
70953;SDS011;58618;47.490;8.736;2023-11-19T08:05:24;1.85;;;1.17;;
70953;SDS011;58618;47.490;8.736;2023-11-19T08:07:52;1.95;;;1.30;;
70953;SDS011;58618;47.490;8.736;2023-11-19T08:10:19;3.42;;;1.20;;
70953;SDS011;58618;47.490;8.736;2023-11-19T08:12:47;4.05;;;1.42;;
70953;SDS011;58618;47.490;8.736;2023-11-19T08:15:15;2.97;;;1.33;;
70953;SDS011;58618;47.490;8.736;2023-11-19T08:17:49;3.33;;;1.48;;
70953;SDS011;58618;47.490;8.736;2023-11-19T08:20:17;2.33;;;1.35;;
70953;SDS011;58618;47.490;8.736;2023-11-19T08:22:44;1.50;;;1.08;;
70953;SDS011;58618;47.490;8.736;2023-11-19T08:25:11;1.67;;;1.08;;
70953;SDS011;58618;47.490;8.736;2023-11-19T08:27:38;1.63;;;1.00;;
70953;SDS011;58618;47.490;8.736;2023-11-19T08:30:06;1.45;;;1.20;;
70953;SDS011;58618;47.490;8.736;2023-11-19T08:32:37;2.10;;;1.10;;
70953;SDS011;58618;47.490;8.736;2023-11-19T08:35:04;1.33;;;1.10;;
70953;SDS011;58618;47.490;8.736;2023-11-19T08:37:32;1.50;;;1.10;;
70953;SDS011;58618;47.490;8.736;2023-11-19T08:39:59;1.73;;;1.20;;
70953;SDS011;58618;47.490;8.736;2023-11-19T08:42:26;1.92;;;1.20;;
70953;SDS011;58618;47.490;8.736;2023-11-19T08:44:54;2.22;;;1.20;;
70953;SDS011;58618;47.490;8.736;2023-11-19T08:47:21;1.30;;;1.00;;
70953;SDS011;58618;47.490;8.736;2023-11-19T08:49:51;3.08;;;1.30;;
70953;SDS011;58618;47.490;8.736;2023-11-19T08:52:19;1.70;;;1.23;;
70953;SDS011;58618;47.490;8.736;2023-11-19T08:54:46;1.58;;;1.23;;
70953;SDS011;58618;47.490;8.736;2023-11-19T08:57:14;2.58;;;1.00;;
70953;SDS011;58618;47.490;8.736;2023-11-19T08:59:41;1.20;;;1.10;;
70953;SDS011;58618;47.490;8.736;2023-11-19T09:02:09;1.40;;;1.10;;
70953;SDS011;58618;47.490;8.736;2023-11-19T09:04:36;2.73;;;1.20;;
70953;SDS011;58618;47.490;8.736;2023-11-19T09:07:05;1.60;;;1.30;;
70953;SDS011;58618;47.490;8.736;2023-11-19T09:09:32;4.22;;;1.80;;
70953;SDS011;58618;47.490;8.736;2023-11-19T09:12:01;5.10;;;1.80;;
70953;SDS011;58618;47.490;8.736;2023-11-19T09:14:31;3.97;;;1.73;;
70953;SDS011;58618;47.490;8.736;2023-11-19T09:17:07;2.20;;;1.40;;
70953;SDS011;58618;47.490;8.736;2023-11-19T09:19:38;1.70;;;1.40;;
70953;SDS011;58618;47.490;8.736;2023-11-19T09:22:06;5.50;;;1.52;;
70953;SDS011;58618;47.490;8.736;2023-11-19T09:24:34;2.70;;;1.60;;
70953;SDS011;58618;47.490;8.736;2023-11-19T09:27:01;2.63;;;1.30;;
70953;SDS011;58618;47.490;8.736;2023-11-19T09:29:31;2.33;;;1.53;;
70953;SDS011;58618;47.490;8.736;2023-11-19T09:32:01;3.67;;;1.90;;
70953;SDS011;58618;47.490;8.736;2023-11-19T09:34:28;2.70;;;1.60;;
70953;SDS011;58618;47.490;8.736;2023-11-19T09:36:56;2.42;;;1.60;;
70953;SDS011;58618;47.490;8.736;2023-11-19T09:39:24;3.53;;;1.60;;
70953;SDS011;58618;47.490;8.736;2023-11-19T09:41:54;2.43;;;1.40;;
70953;SDS011;58618;47.490;8.736;2023-11-19T09:44:21;2.75;;;1.15;;
70953;SDS011;58618;47.490;8.736;2023-11-19T09:46:51;3.55;;;1.33;;
70953;SDS011;58618;47.490;8.736;2023-11-19T09:49:22;5.63;;;1.45;;
70953;SDS011;58618;47.490;8.736;2023-11-19T09:51:54;2.40;;;1.20;;
70953;SDS011;58618;47.490;8.736;2023-11-19T09:54:25;1.30;;;1.00;;
70953;SDS011;58618;47.490;8.736;2023-11-19T09:56:56;2.05;;;1.33;;
70953;SDS011;58618;47.490;8.736;2023-11-19T09:59:28;1.92;;;1.27;;
70953;SDS011;58618;47.490;8.736;2023-11-19T10:01:56;2.22;;;1.25;;
70953;SDS011;58618;47.490;8.736;2023-11-19T10:04:27;1.73;;;1.30;;
70953;SDS011;58618;47.490;8.736;2023-11-19T10:06:57;6.83;;;1.23;;
70953;SDS011;58618;47.490;8.736;2023-11-19T10:09:25;3.78;;;1.30;;
70953;SDS011;58618;47.490;8.736;2023-11-19T10:11:53;1.67;;;1.20;;
70953;SDS011;58618;47.490;8.736;2023-11-19T10:14:21;1.30;;;1.08;;
70953;SDS011;58618;47.490;8.736;2023-11-19T10:16:52;3.00;;;1.30;;
70953;SDS011;58618;47.490;8.736;2023-11-19T10:19:27;2.60;;;1.13;;
70953;SDS011;58618;47.490;8.736;2023-11-19T10:22:01;2.30;;;1.20;;
70953;SDS011;58618;47.490;8.736;2023-11-19T10:24:32;2.75;;;1.10;;
70953;SDS011;58618;47.490;8.736;2023-11-19T10:27:02;4.18;;;1.60;;
70953;SDS011;58618;47.490;8.736;2023-11-19T10:29:29;3.15;;;1.38;;
70953;SDS011;58618;47.490;8.736;2023-11-19T10:31:56;1.80;;;1.17;;
70953;SDS011;58618;47.490;8.736;2023-11-19T10:34:25;3.38;;;1.10;;
70953;SDS011;58618;47.490;8.736;2023-11-19T10:36:52;3.42;;;1.17;;
70953;SDS011;58618;47.490;8.736;2023-11-19T10:39:20;2.58;;;1.27;;
70953;SDS011;58618;47.490;8.736;2023-11-19T10:41:50;3.58;;;1.38;;
70953;SDS011;58618;47.490;8.736;2023-11-19T10:44:30;1.67;;;1.33;;
70953;SDS011;58618;47.490;8.736;2023-11-19T10:46:59;2.97;;;1.33;;
70953;SDS011;58618;47.490;8.736;2023-11-19T10:49:26;2.83;;;1.40;;
70953;SDS011;58618;47.490;8.736;2023-11-19T10:51:53;2.60;;;1.35;;
70953;SDS011;58618;47.490;8.736;2023-11-19T10:54:23;1.92;;;1.30;;
70953;SDS011;58618;47.490;8.736;2023-11-19T10:56:54;1.77;;;1.10;;
70953;SDS011;58618;47.490;8.736;2023-11-19T10:59:24;1.40;;;1.20;;
70953;SDS011;58618;47.490;8.736;2023-11-19T11:01:55;3.38;;;1.10;;
70953;SDS011;58618;47.490;8.736;2023-11-19T11:04:24;3.95;;;1.35;;
70953;SDS011;58618;47.490;8.736;2023-11-19T11:06:54;3.35;;;1.45;;
70953;SDS011;58618;47.490;8.736;2023-11-19T11:09:22;1.77;;;1.30;;
70953;SDS011;58618;47.490;8.736;2023-11-19T11:11:50;2.65;;;1.50;;
70953;SDS011;58618;47.490;8.736;2023-11-19T11:14:20;2.95;;;1.50;;
70953;SDS011;58618;47.490;8.736;2023-11-19T11:16:48;1.88;;;1.30;;
70953;SDS011;58618;47.490;8.736;2023-11-19T11:19:17;1.90;;;1.40;;
70953;SDS011;58618;47.490;8.736;2023-11-19T11:21:45;3.23;;;1.07;;
70953;SDS011;58618;47.490;8.736;2023-11-19T11:24:41;2.22;;;1.40;;
70953;SDS011;58618;47.490;8.736;2023-11-19T11:30:49;2.80;;;1.27;;
70953;SDS011;58618;47.490;8.736;2023-11-19T11:33:32;2.45;;;1.20;;
70953;SDS011;58618;47.490;8.736;2023-11-19T11:36:10;2.00;;;1.40;;
70953;SDS011;58618;47.490;8.736;2023-11-19T11:38:43;2.33;;;1.30;;
70953;SDS011;58618;47.490;8.736;2023-11-19T11:41:17;1.42;;;1.10;;
70953;SDS011;58618;47.490;8.736;2023-11-19T11:43:49;2.15;;;1.33;;
70953;SDS011;58618;47.490;8.736;2023-11-19T11:49:27;1.97;;;1.30;;
70953;SDS011;58618;47.490;8.736;2023-11-19T11:51:58;2.78;;;1.15;;
70953;SDS011;58618;47.490;8.736;2023-11-19T11:54:33;1.42;;;1.02;;
70953;SDS011;58618;47.490;8.736;2023-11-19T11:57:06;1.95;;;1.10;;
70953;SDS011;58618;47.490;8.736;2023-11-19T11:59:42;1.90;;;1.15;;
70953;SDS011;58618;47.490;8.736;2023-11-19T12:02:14;1.83;;;1.03;;
70953;SDS011;58618;47.490;8.736;2023-11-19T12:04:43;2.10;;;1.30;;
70953;SDS011;58618;47.490;8.736;2023-11-19T12:07:15;3.03;;;1.60;;
70953;SDS011;58618;47.490;8.736;2023-11-19T12:09:46;1.52;;;1.30;;
70953;SDS011;58618;47.490;8.736;2023-11-19T12:12:18;3.08;;;1.23;;
70953;SDS011;58618;47.490;8.736;2023-11-19T12:15:05;2.63;;;1.20;;
70953;SDS011;58618;47.490;8.736;2023-11-19T12:17:42;1.92;;;1.10;;
70953;SDS011;58618;47.490;8.736;2023-11-19T12:20:12;3.15;;;1.40;;
70953;SDS011;58618;47.490;8.736;2023-11-19T12:22:40;1.38;;;1.20;;
70953;SDS011;58618;47.490;8.736;2023-11-19T12:25:08;1.92;;;1.17;;
70953;SDS011;58618;47.490;8.736;2023-11-19T12:27:38;2.80;;;1.10;;
70953;SDS011;58618;47.490;8.736;2023-11-19T12:30:07;1.80;;;1.20;;
70953;SDS011;58618;47.490;8.736;2023-11-19T12:32:38;6.20;;;1.45;;
70953;SDS011;58618;47.490;8.736;2023-11-19T12:35:08;3.42;;;1.30;;
70953;SDS011;58618;47.490;8.736;2023-11-19T12:37:40;3.40;;;1.23;;
70953;SDS011;58618;47.490;8.736;2023-11-19T12:40:14;2.03;;;1.20;;
70953;SDS011;58618;47.490;8.736;2023-11-19T12:42:43;1.60;;;1.15;;
70953;SDS011;58618;47.490;8.736;2023-11-19T12:45:10;1.63;;;1.33;;
70953;SDS011;58618;47.490;8.736;2023-11-19T12:47:39;2.55;;;1.25;;
70953;SDS011;58618;47.490;8.736;2023-11-19T12:50:09;2.25;;;1.10;;
70953;SDS011;58618;47.490;8.736;2023-11-19T12:52:37;1.53;;;1.10;;
70953;SDS011;58618;47.490;8.736;2023-11-19T12:55:05;1.90;;;1.55;;
70953;SDS011;58618;47.490;8.736;2023-11-19T12:57:50;2.88;;;1.10;;
70953;SDS011;58618;47.490;8.736;2023-11-19T13:00:18;2.20;;;1.17;;
70953;SDS011;58618;47.490;8.736;2023-11-19T13:02:48;1.63;;;1.27;;
70953;SDS011;58618;47.490;8.736;2023-11-19T13:05:24;3.07;;;1.23;;
70953;SDS011;58618;47.490;8.736;2023-11-19T13:08:02;2.13;;;1.33;;
70953;SDS011;58618;47.490;8.736;2023-11-19T13:10:30;2.00;;;1.40;;
70953;SDS011;58618;47.490;8.736;2023-11-19T13:13:05;2.67;;;1.33;;
70953;SDS011;58618;47.490;8.736;2023-11-19T13:15:33;1.52;;;1.10;;
70953;SDS011;58618;47.490;8.736;2023-11-19T13:18:01;1.57;;;1.20;;
70953;SDS011;58618;47.490;8.736;2023-11-19T13:20:31;1.95;;;1.30;;
70953;SDS011;58618;47.490;8.736;2023-11-19T13:22:59;1.50;;;1.20;;
70953;SDS011;58618;47.490;8.736;2023-11-19T13:25:27;1.50;;;1.15;;
70953;SDS011;58618;47.490;8.736;2023-11-19T13:27:55;2.35;;;1.45;;
70953;SDS011;58618;47.490;8.736;2023-11-19T13:30:23;1.90;;;1.37;;
70953;SDS011;58618;47.490;8.736;2023-11-19T13:32:51;1.63;;;1.20;;
70953;SDS011;58618;47.490;8.736;2023-11-19T13:35:20;2.33;;;1.20;;
70953;SDS011;58618;47.490;8.736;2023-11-19T13:37:50;1.70;;;1.00;;
70953;SDS011;58618;47.490;8.736;2023-11-19T13:40:17;1.63;;;1.20;;
70953;SDS011;58618;47.490;8.736;2023-11-19T13:42:45;3.57;;;1.30;;
70953;SDS011;58618;47.490;8.736;2023-11-19T13:45:13;2.08;;;1.27;;
70953;SDS011;58618;47.490;8.736;2023-11-19T13:47:43;1.92;;;1.17;;
70953;SDS011;58618;47.490;8.736;2023-11-19T13:50:12;1.58;;;1.10;;
70953;SDS011;58618;47.490;8.736;2023-11-19T13:52:43;1.40;;;1.08;;
70953;SDS011;58618;47.490;8.736;2023-11-19T13:55:14;2.23;;;1.00;;
70953;SDS011;58618;47.490;8.736;2023-11-19T13:57:42;1.85;;;1.30;;
70953;SDS011;58618;47.490;8.736;2023-11-19T14:00:09;1.60;;;1.20;;
70953;SDS011;58618;47.490;8.736;2023-11-19T14:02:39;2.25;;;1.10;;
70953;SDS011;58618;47.490;8.736;2023-11-19T14:05:07;1.63;;;1.10;;
70953;SDS011;58618;47.490;8.736;2023-11-19T14:07:34;1.73;;;1.00;;
70953;SDS011;58618;47.490;8.736;2023-11-19T14:10:02;1.30;;;1.10;;
70953;SDS011;58618;47.490;8.736;2023-11-19T14:12:32;1.20;;;1.00;;
70953;SDS011;58618;47.490;8.736;2023-11-19T14:15:00;1.10;;;0.90;;
70953;SDS011;58618;47.490;8.736;2023-11-19T14:17:27;2.03;;;1.27;;
70953;SDS011;58618;47.490;8.736;2023-11-19T14:19:55;1.83;;;1.00;;
70953;SDS011;58618;47.490;8.736;2023-11-19T14:22:22;1.77;;;1.08;;
70953;SDS011;58618;47.490;8.736;2023-11-19T14:24:50;1.75;;;1.20;;
70953;SDS011;58618;47.490;8.736;2023-11-19T14:27:18;1.33;;;0.80;;
70953;SDS011;58618;47.490;8.736;2023-11-19T14:29:46;1.77;;;1.05;;
70953;SDS011;58618;47.490;8.736;2023-11-19T14:32:13;1.53;;;0.97;;
70953;SDS011;58618;47.490;8.736;2023-11-19T14:34:41;2.17;;;1.17;;
70953;SDS011;58618;47.490;8.736;2023-11-19T14:37:09;2.05;;;1.20;;
70953;SDS011;58618;47.490;8.736;2023-11-19T14:39:36;5.15;;;2.10;;
70953;SDS011;58618;47.490;8.736;2023-11-19T14:42:03;2.63;;;1.70;;
70953;SDS011;58618;47.490;8.736;2023-11-19T14:44:31;1.73;;;0.90;;
70953;SDS011;58618;47.490;8.736;2023-11-19T14:47:00;1.67;;;1.15;;
70953;SDS011;58618;47.490;8.736;2023-11-19T14:49:28;1.73;;;1.15;;
70953;SDS011;58618;47.490;8.736;2023-11-19T14:51:55;1.92;;;1.15;;
70953;SDS011;58618;47.490;8.736;2023-11-19T14:54:22;1.30;;;1.00;;
70953;SDS011;58618;47.490;8.736;2023-11-19T14:56:50;3.33;;;1.13;;
70953;SDS011;58618;47.490;8.736;2023-11-19T14:59:17;1.90;;;1.20;;
70953;SDS011;58618;47.490;8.736;2023-11-19T15:01:45;1.55;;;1.20;;
70953;SDS011;58618;47.490;8.736;2023-11-19T15:04:13;1.70;;;1.02;;